createdAt,value
2022-08-16T00:01:56.063Z,20.90
2022-08-16T00:03:32.479Z,20.80
2022-08-16T00:05:12.589Z,20.80
2022-08-16T00:06:44.767Z,20.80
2022-08-16T00:08:37.153Z,20.90
2022-08-16T00:10:20.879Z,20.90
2022-08-16T00:11:55.506Z,20.90
2022-08-16T00:13:27.771Z,20.80
2022-08-16T00:15:06.352Z,20.80
2022-08-16T00:17:00.906Z,20.80
2022-08-16T00:18:37.523Z,20.80
2022-08-16T00:20:12.453Z,20.70
2022-08-16T00:21:46.521Z,20.70
2022-08-16T00:23:34.507Z,20.70
2022-08-16T00:25:15.764Z,20.70
2022-08-16T00:26:48.075Z,20.70
2022-08-16T00:28:22.359Z,20.70
2022-08-16T00:30:09.266Z,20.70
2022-08-16T00:31:59.703Z,20.70
2022-08-16T00:33:33.607Z,20.70
2022-08-16T00:35:15.277Z,20.70
2022-08-16T00:36:49.994Z,20.70
2022-08-16T00:38:43.442Z,20.60
2022-08-16T00:40:43.937Z,20.60
2022-08-16T00:42:30.358Z,20.60
2022-08-16T00:44:10.931Z,20.60
2022-08-16T00:45:57.830Z,20.70
2022-08-16T00:47:30.704Z,20.60
2022-08-16T00:49:06.729Z,20.60
2022-08-16T00:50:50.447Z,20.60
2022-08-16T00:52:30.311Z,20.60
2022-08-16T00:54:03.231Z,20.60
2022-08-16T00:55:40.133Z,20.60
2022-08-16T00:57:13.471Z,20.60
2022-08-16T00:58:48.345Z,20.60
2022-08-16T01:00:20.740Z,20.60
2022-08-16T01:01:56.304Z,20.60
2022-08-16T01:03:30.377Z,20.60
2022-08-16T01:05:11.018Z,20.60
2022-08-16T01:06:49.102Z,20.60
2022-08-16T01:08:36.318Z,20.60
2022-08-16T01:10:16.474Z,20.60
2022-08-16T01:11:53.796Z,20.50
2022-08-16T01:13:31.346Z,20.60
2022-08-16T01:15:03.994Z,20.60
2022-08-16T01:16:36.870Z,20.60
2022-08-16T01:18:39.285Z,20.60
2022-08-16T01:20:23.827Z,20.60
2022-08-16T01:22:47.747Z,20.60
2022-08-16T01:24:02.179Z,20.60
2022-08-16T01:25:39.221Z,20.60
2022-08-16T01:27:25.267Z,20.60
2022-08-16T01:29:04.675Z,20.60
2022-08-16T01:30:49.656Z,20.60
2022-08-16T01:32:33.856Z,20.60
2022-08-16T01:34:07.174Z,20.60
2022-08-16T01:35:52.746Z,20.60
2022-08-16T01:37:25.383Z,20.60
2022-08-16T01:38:57.599Z,20.60
2022-08-16T01:40:30.650Z,20.60
2022-08-16T01:42:12.940Z,20.60
2022-08-16T01:43:47.110Z,20.60
2022-08-16T01:45:40.312Z,20.60
2022-08-16T01:47:13.370Z,20.60
2022-08-16T01:48:54.279Z,20.60
2022-08-16T01:50:43.557Z,20.60
2022-08-16T01:52:27.984Z,20.60
2022-08-16T01:54:03.292Z,20.70
2022-08-16T01:55:35.936Z,20.70
2022-08-16T01:57:12.882Z,20.70
2022-08-16T01:58:47.901Z,20.70
2022-08-16T02:00:20.746Z,20.80
2022-08-16T02:02:02.225Z,20.80
2022-08-16T02:03:35.071Z,20.80
2022-08-16T02:05:07.602Z,20.90
2022-08-16T02:06:46.854Z,20.90
2022-08-16T02:08:33.429Z,20.90
2022-08-16T02:10:08.387Z,20.90
2022-08-16T02:11:48.450Z,20.90
2022-08-16T02:13:27.826Z,20.90
2022-08-16T02:15:05.327Z,20.90
2022-08-16T02:16:39.647Z,21.00
2022-08-16T02:18:13.663Z,21.00
2022-08-16T02:19:58.402Z,21.00
2022-08-16T02:21:32.596Z,21.00
2022-08-16T02:23:06.648Z,21.00
2022-08-16T02:24:42.333Z,21.10
2022-08-16T02:26:18.842Z,21.10
2022-08-16T02:27:51.711Z,21.10
2022-08-16T02:29:23.879Z,21.20
2022-08-16T02:31:08.926Z,21.20
2022-08-16T02:32:50.456Z,21.20
2022-08-16T02:34:32.689Z,21.20
2022-08-16T02:36:07.343Z,21.30
2022-08-16T02:37:52.468Z,21.30
2022-08-16T02:39:25.808Z,21.30
2022-08-16T02:41:09.541Z,21.30
2022-08-16T02:42:42.460Z,21.30
2022-08-16T02:44:14.797Z,21.30
2022-08-16T02:45:48.275Z,21.30
2022-08-16T02:47:25.335Z,21.30
2022-08-16T02:49:00.290Z,21.30
2022-08-16T02:50:53.750Z,21.30
2022-08-16T02:52:29.159Z,21.30
2022-08-16T02:54:01.855Z,21.20
2022-08-16T02:55:40.620Z,21.20
2022-08-16T02:57:13.561Z,21.10
2022-08-16T02:58:47.212Z,21.10
2022-08-16T03:00:34.719Z,21.10
2022-08-16T03:02:08.130Z,21.10
2022-08-16T03:04:29.051Z,21.10
2022-08-16T03:05:33.903Z,21.10
2022-08-16T03:07:06.472Z,21.10
2022-08-16T03:08:51.837Z,21.10
2022-08-16T03:10:33.704Z,21.10
2022-08-16T03:12:07.412Z,21.10
2022-08-16T03:13:40.583Z,21.10
2022-08-16T03:15:17.788Z,21.10
2022-08-16T03:16:59.963Z,21.20
2022-08-16T03:18:34.674Z,21.20
2022-08-16T03:20:15.658Z,21.20
2022-08-16T03:21:51.823Z,21.20
2022-08-16T03:23:24.027Z,21.20
2022-08-16T03:25:01.675Z,21.20
2022-08-16T03:26:33.922Z,21.20
2022-08-16T03:28:07.561Z,21.20
2022-08-16T03:29:42.698Z,21.10
2022-08-16T03:31:23.401Z,21.10
2022-08-16T03:32:55.903Z,21.10
2022-08-16T03:34:28.480Z,21.00
2022-08-16T03:36:30.427Z,21.00
2022-08-16T03:38:02.620Z,21.00
2022-08-16T03:39:35.940Z,21.00
2022-08-16T03:41:25.156Z,21.00
2022-08-16T03:43:20.482Z,21.00
2022-08-16T03:44:53.618Z,21.00
2022-08-16T03:46:47.983Z,20.90
2022-08-16T03:48:39.566Z,20.90
2022-08-16T03:50:25.915Z,20.80
2022-08-16T03:51:58.724Z,20.80
2022-08-16T03:53:37.809Z,20.70
2022-08-16T03:55:15.179Z,20.70
2022-08-16T03:56:56.880Z,20.60
2022-08-16T03:58:30.325Z,20.50
2022-08-16T04:00:35.379Z,20.40
2022-08-16T04:02:21.987Z,20.40
2022-08-16T04:03:55.201Z,20.40
2022-08-16T04:05:28.748Z,20.50
2022-08-16T04:07:07.029Z,20.60
2022-08-16T04:08:39.688Z,20.80
2022-08-16T04:10:36.602Z,20.90
2022-08-16T04:12:10.813Z,21.00
2022-08-16T04:13:59.030Z,21.20
2022-08-16T04:15:35.947Z,21.30
2022-08-16T04:17:08.514Z,21.50
2022-08-16T04:18:42.722Z,21.60
2022-08-16T04:20:29.403Z,21.60
2022-08-16T04:22:08.489Z,21.70
2022-08-16T04:23:41.530Z,21.70
2022-08-16T04:25:13.678Z,21.60
2022-08-16T04:26:46.764Z,21.60
2022-08-16T04:28:51.710Z,21.50
2022-08-16T04:30:31.782Z,21.50
2022-08-16T04:32:05.098Z,21.40
2022-08-16T04:33:37.784Z,21.40
2022-08-16T04:35:23.740Z,21.50
2022-08-16T04:36:58.031Z,21.50
2022-08-16T04:38:30.546Z,21.50
2022-08-16T04:40:05.627Z,21.50
2022-08-16T04:41:38.486Z,21.50
2022-08-16T04:43:11.922Z,21.50
2022-08-16T04:44:54.421Z,21.50
2022-08-16T04:47:01.094Z,21.50
2022-08-16T04:48:22.141Z,21.50
2022-08-16T04:50:06.369Z,21.60
2022-08-16T04:51:42.615Z,21.60
2022-08-16T04:53:15.812Z,21.70
2022-08-16T04:54:48.323Z,21.70
2022-08-16T04:56:22.487Z,21.80
2022-08-16T04:57:56.444Z,21.80
2022-08-16T04:59:29.639Z,21.90
2022-08-16T05:01:02.098Z,21.90
2022-08-16T05:02:42.169Z,21.90
2022-08-16T05:04:19.619Z,22.00
2022-08-16T05:05:55.799Z,22.00
2022-08-16T05:07:32.620Z,22.00
2022-08-16T05:09:06.504Z,22.00
2022-08-16T05:10:38.962Z,22.00
2022-08-16T05:12:11.297Z,22.00
2022-08-16T05:13:47.280Z,22.10
2022-08-16T05:15:19.987Z,22.10
2022-08-16T05:16:52.501Z,22.20
2022-08-16T05:18:26.957Z,22.20
2022-08-16T05:20:00.274Z,22.30
2022-08-16T05:21:35.941Z,22.30
2022-08-16T05:23:11.481Z,22.40
2022-08-16T05:24:46.213Z,22.40
2022-08-16T05:26:20.491Z,22.50
2022-08-16T05:27:52.646Z,22.50
2022-08-16T05:29:25.069Z,22.50
2022-08-16T05:31:17.367Z,22.60
2022-08-16T05:32:50.029Z,22.60
2022-08-16T05:34:22.530Z,22.70
2022-08-16T05:35:56.006Z,22.80
2022-08-16T05:37:28.835Z,22.80
2022-08-16T05:39:12.428Z,22.90
2022-08-16T05:40:59.978Z,23.00
2022-08-16T05:42:35.844Z,23.10
2022-08-16T05:44:22.940Z,23.10
2022-08-16T05:45:59.940Z,23.20
2022-08-16T05:47:32.019Z,23.30
2022-08-16T05:49:08.776Z,23.40
2022-08-16T05:50:41.667Z,23.40
2022-08-16T05:52:17.292Z,23.40
2022-08-16T05:53:52.886Z,23.40
2022-08-16T05:55:25.163Z,23.40
2022-08-16T05:56:58.081Z,23.40
2022-08-16T05:58:33.437Z,23.30
2022-08-16T06:00:10.233Z,23.30
2022-08-16T06:01:46.750Z,23.40
2022-08-16T06:03:19.789Z,23.40
2022-08-16T06:04:52.054Z,23.50
2022-08-16T06:06:29.063Z,23.60
2022-08-16T06:08:01.279Z,23.60
2022-08-16T06:09:37.208Z,23.70
2022-08-16T06:11:16.540Z,23.70
2022-08-16T06:12:52.634Z,23.80
2022-08-16T06:14:29.485Z,23.90
2022-08-16T06:16:01.966Z,23.90
2022-08-16T06:17:41.565Z,23.90
2022-08-16T06:19:15.765Z,24.00
2022-08-16T06:20:51.796Z,24.00
2022-08-16T06:22:38.986Z,24.10
2022-08-16T06:24:53.345Z,24.00
2022-08-16T06:26:07.647Z,24.20
2022-08-16T06:27:40.940Z,24.20
2022-08-16T06:29:13.450Z,24.50
2022-08-16T06:30:46.599Z,24.80
2022-08-16T06:32:27.547Z,24.90
2022-08-16T06:34:00.562Z,25.00
2022-08-16T06:35:40.293Z,25.10
2022-08-16T06:37:12.740Z,25.10
2022-08-16T06:38:55.354Z,25.10
2022-08-16T06:40:33.817Z,25.10
2022-08-16T06:42:06.394Z,25.20
2022-08-16T06:43:39.567Z,25.30
2022-08-16T06:45:11.937Z,25.40
2022-08-16T06:46:50.497Z,25.50
2022-08-16T06:48:33.141Z,25.60
2022-08-16T06:50:06.232Z,25.70
2022-08-16T06:51:46.034Z,26.10
2022-08-16T06:53:21.173Z,26.20
2022-08-16T06:54:53.855Z,26.40
2022-08-16T06:56:26.152Z,26.50
2022-08-16T06:57:58.447Z,26.90
2022-08-16T06:59:48.599Z,27.20
2022-08-16T07:01:42.933Z,27.20
2022-08-16T07:03:27.590Z,27.10
2022-08-16T07:05:00.191Z,27.10
2022-08-16T07:06:32.570Z,27.20
2022-08-16T07:08:04.754Z,27.10
2022-08-16T07:09:37.429Z,27.20
2022-08-16T07:11:09.898Z,27.20
2022-08-16T07:12:47.391Z,27.50
2022-08-16T07:14:35.161Z,27.50
2022-08-16T07:16:12.146Z,27.60
2022-08-16T07:17:49.714Z,27.40
2022-08-16T07:19:21.746Z,27.60
2022-08-16T07:21:15.222Z,27.60
2022-08-16T07:22:52.745Z,27.80
2022-08-16T07:24:31.488Z,27.90
2022-08-16T07:26:05.528Z,27.70
2022-08-16T07:27:39.185Z,27.90
2022-08-16T07:29:12.138Z,28.00
2022-08-16T07:30:47.139Z,27.90
2022-08-16T07:32:20.900Z,27.80
2022-08-16T07:34:02.183Z,28.00
2022-08-16T07:35:34.612Z,27.90
2022-08-16T07:37:10.201Z,27.70
2022-08-16T07:38:42.589Z,27.70
2022-08-16T07:40:15.223Z,27.70
2022-08-16T07:41:47.568Z,27.70
2022-08-16T07:43:19.883Z,27.70
2022-08-16T07:44:52.978Z,27.90
2022-08-16T07:46:39.298Z,27.90
2022-08-16T07:48:12.780Z,28.10
2022-08-16T07:49:52.804Z,28.20
2022-08-16T07:51:36.937Z,28.50
2022-08-16T07:53:09.971Z,28.60
2022-08-16T07:54:46.000Z,28.80
2022-08-16T07:56:21.406Z,28.50
2022-08-16T07:58:06.227Z,28.60
2022-08-16T07:59:50.381Z,28.30
2022-08-16T08:01:24.848Z,28.20
2022-08-16T08:03:00.598Z,28.30
2022-08-16T08:04:34.903Z,28.40
2022-08-16T08:06:10.441Z,28.60
2022-08-16T08:07:45.183Z,28.50
2022-08-16T08:09:17.614Z,28.50
2022-08-16T08:10:51.227Z,28.40
2022-08-16T08:12:31.824Z,28.50
2022-08-16T08:14:08.233Z,28.50
2022-08-16T08:16:00.608Z,28.60
2022-08-16T08:17:42.495Z,28.80
2022-08-16T08:19:16.467Z,29.20
2022-08-16T08:20:59.179Z,29.70
2022-08-16T08:22:33.136Z,30.00
2022-08-16T08:24:05.391Z,29.80
2022-08-16T08:25:54.430Z,29.60
2022-08-16T08:27:27.679Z,30.10
2022-08-16T08:29:05.236Z,29.80
2022-08-16T08:30:51.694Z,29.80
2022-08-16T08:32:57.192Z,29.60
2022-08-16T08:34:25.842Z,29.30
2022-08-16T08:36:00.966Z,29.10
2022-08-16T08:37:54.278Z,29.50
2022-08-16T08:39:27.312Z,29.40
2022-08-16T08:40:59.732Z,29.30
2022-08-16T08:42:32.184Z,29.30
2022-08-16T08:44:27.992Z,29.40
2022-08-16T08:45:56.975Z,29.20
2022-08-16T08:47:29.047Z,29.40
2022-08-16T08:49:02.614Z,29.40
2022-08-16T08:50:35.043Z,29.50
2022-08-16T08:52:11.524Z,29.30
2022-08-16T08:54:06.825Z,28.90
2022-08-16T08:55:39.659Z,28.60
2022-08-16T08:57:13.320Z,28.70
2022-08-16T08:58:54.643Z,28.60
2022-08-16T09:00:30.383Z,28.90
2022-08-16T09:02:03.116Z,29.30
2022-08-16T09:03:40.888Z,29.50
2022-08-16T09:05:16.299Z,30.00
2022-08-16T09:06:48.745Z,30.30
2022-08-16T09:08:22.183Z,29.90
2022-08-16T09:10:00.729Z,29.80
2022-08-16T09:11:41.076Z,29.40
2022-08-16T09:13:15.343Z,29.10
2022-08-16T09:14:50.812Z,28.80
2022-08-16T09:17:03.493Z,28.60
2022-08-16T09:18:26.213Z,28.70
2022-08-16T09:20:01.579Z,28.70
2022-08-16T09:21:37.872Z,29.10
2022-08-16T09:23:10.822Z,29.50
2022-08-16T09:24:53.260Z,29.40
2022-08-16T09:26:45.036Z,29.80
2022-08-16T09:29:14.065Z,30.20
2022-08-16T09:30:36.360Z,30.70
2022-08-16T09:32:04.383Z,31.20
2022-08-16T09:33:41.900Z,31.40
2022-08-16T09:35:13.972Z,31.20
2022-08-16T09:36:48.170Z,31.30
2022-08-16T09:38:31.472Z,31.60
2022-08-16T09:40:31.705Z,32.10
2022-08-16T09:42:00.299Z,32.60
2022-08-16T09:43:59.534Z,33.00
2022-08-16T09:45:29.018Z,33.10
2022-08-16T09:47:01.328Z,32.90
2022-08-16T09:48:44.622Z,32.30
2022-08-16T09:50:26.890Z,32.50
2022-08-16T09:52:10.290Z,32.50
2022-08-16T09:53:43.184Z,32.10
2022-08-16T09:55:15.351Z,31.70
2022-08-16T09:56:51.433Z,31.30
2022-08-16T09:58:41.821Z,31.20
2022-08-16T10:00:42.677Z,31.00
2022-08-16T10:02:27.722Z,30.80
2022-08-16T10:04:02.386Z,30.70
2022-08-16T10:05:37.463Z,30.70
2022-08-16T10:07:15.212Z,30.60
2022-08-16T10:08:51.262Z,30.60
2022-08-16T10:10:42.304Z,30.70
2022-08-16T10:12:33.457Z,31.10
2022-08-16T10:14:05.707Z,30.70
2022-08-16T10:15:39.694Z,30.50
2022-08-16T10:17:14.661Z,30.40
2022-08-16T10:19:01.762Z,30.20
2022-08-16T10:20:42.483Z,30.30
2022-08-16T10:22:17.232Z,30.50
2022-08-16T10:23:53.509Z,30.30
2022-08-16T10:27:19.648Z,30.00
2022-08-16T10:27:27.527Z,30.00
2022-08-16T10:29:10.696Z,29.90
2022-08-16T10:30:43.432Z,30.20
2022-08-16T10:32:20.995Z,30.50
2022-08-16T10:33:54.241Z,30.40
2022-08-16T10:35:32.979Z,30.70
2022-08-16T10:37:05.509Z,31.00
2022-08-16T10:38:40.235Z,30.70
2022-08-16T10:40:28.409Z,30.70
2022-08-16T10:42:02.401Z,30.70
2022-08-16T10:43:36.609Z,30.50
2022-08-16T10:45:09.564Z,30.20
2022-08-16T10:46:43.494Z,30.00
2022-08-16T10:48:27.276Z,30.20
2022-08-16T10:50:00.454Z,29.90
2022-08-16T10:51:34.227Z,29.50
2022-08-16T10:53:13.686Z,29.40
2022-08-16T10:56:49.472Z,29.70
2022-08-16T10:58:33.951Z,29.70
2022-08-16T11:00:22.289Z,30.00
2022-08-16T11:03:48.145Z,30.70
2022-08-16T11:05:26.659Z,31.00
2022-08-16T11:07:08.320Z,31.20
2022-08-16T11:08:44.970Z,31.30
2022-08-16T11:12:16.755Z,31.90
2022-08-16T11:14:05.862Z,31.80
2022-08-16T11:15:54.386Z,31.80
2022-08-16T11:17:28.371Z,31.80
2022-08-16T11:19:12.982Z,31.90
2022-08-16T11:20:48.753Z,31.60
2022-08-16T11:22:39.310Z,31.40
2022-08-16T11:24:42.019Z,31.30
2022-08-16T11:26:22.742Z,31.10
2022-08-16T11:27:57.823Z,31.10
2022-08-16T11:29:31.380Z,31.30
2022-08-16T11:31:03.648Z,31.30
2022-08-16T11:32:36.778Z,30.80
2022-08-16T11:34:09.263Z,30.60
2022-08-16T11:35:43.759Z,30.60
2022-08-16T11:37:27.315Z,30.50
2022-08-16T11:39:06.855Z,30.50
2022-08-16T11:40:52.757Z,30.40
2022-08-16T11:42:29.730Z,30.50
2022-08-16T11:44:06.307Z,30.40
2022-08-16T11:45:38.660Z,30.20
2022-08-16T11:47:11.299Z,30.40
2022-08-16T11:48:45.758Z,30.80
2022-08-16T11:50:17.873Z,31.10
2022-08-16T11:51:50.643Z,31.00
2022-08-16T11:53:24.305Z,30.90
2022-08-16T11:55:00.091Z,30.70
2022-08-16T11:56:51.821Z,30.70
2022-08-16T11:58:26.260Z,30.80
2022-08-16T12:00:00.667Z,30.80
2022-08-16T12:01:44.401Z,30.90
2022-08-16T12:03:34.544Z,30.70
2022-08-16T12:05:10.219Z,30.60
2022-08-16T12:06:42.329Z,30.40
2022-08-16T12:08:18.102Z,30.40
2022-08-16T12:09:53.263Z,30.70
2022-08-16T12:11:26.862Z,30.80
2022-08-16T12:12:58.955Z,30.80
2022-08-16T12:14:37.630Z,30.60
2022-08-16T12:16:10.378Z,30.70
2022-08-16T12:17:43.446Z,31.00
2022-08-16T12:19:16.482Z,30.90
2022-08-16T12:20:48.988Z,30.70
2022-08-16T12:22:21.433Z,30.60
2022-08-16T12:23:53.657Z,30.40
2022-08-16T12:25:27.994Z,30.40
2022-08-16T12:27:00.985Z,30.30
2022-08-16T12:28:53.927Z,30.30
2022-08-16T12:30:35.006Z,30.30
2022-08-16T12:32:35.680Z,30.50
2022-08-16T12:34:03.567Z,30.70
2022-08-16T12:35:37.676Z,30.80
2022-08-16T12:37:11.681Z,31.10
2022-08-16T12:38:47.882Z,31.20
2022-08-16T12:40:25.289Z,31.60
2022-08-16T12:42:01.353Z,31.60
2022-08-16T12:43:33.662Z,31.70
2022-08-16T12:45:12.176Z,31.50
2022-08-16T12:47:04.695Z,31.50
2022-08-16T12:48:56.191Z,31.30
2022-08-16T12:50:32.962Z,31.10
2022-08-16T12:52:05.985Z,31.10
2022-08-16T12:53:40.051Z,31.00
2022-08-16T12:55:14.348Z,30.80
2022-08-16T12:56:46.916Z,30.60
2022-08-16T12:58:49.276Z,30.50
2022-08-16T13:00:26.528Z,30.40
2022-08-16T13:02:06.216Z,30.60
2022-08-16T13:03:45.269Z,30.40
2022-08-16T13:05:17.494Z,30.40
2022-08-16T13:06:52.587Z,30.00
2022-08-16T13:08:27.489Z,30.00
2022-08-16T13:10:21.019Z,29.80
2022-08-16T13:12:18.815Z,29.40
2022-08-16T13:13:54.791Z,29.20
2022-08-16T13:15:28.873Z,28.80
2022-08-16T13:17:06.740Z,28.70
2022-08-16T13:18:39.826Z,28.40
2022-08-16T13:20:15.848Z,28.30
2022-08-16T13:21:49.954Z,28.30
2022-08-16T13:23:23.982Z,28.30
2022-08-16T13:24:56.136Z,28.20
2022-08-16T13:26:28.515Z,28.10
2022-08-16T13:28:03.207Z,28.20
2022-08-16T13:29:39.934Z,28.10
2022-08-16T13:31:12.396Z,28.00
2022-08-16T13:32:49.432Z,27.90
2022-08-16T13:34:24.514Z,27.90
2022-08-16T13:36:00.300Z,27.90
2022-08-16T13:37:32.832Z,28.00
2022-08-16T13:39:09.757Z,27.90
2022-08-16T13:40:42.996Z,27.90
2022-08-16T13:42:15.497Z,27.90
2022-08-16T13:43:55.099Z,27.80
2022-08-16T13:45:33.155Z,27.90
2022-08-16T13:47:08.998Z,27.80
2022-08-16T13:48:44.792Z,27.80
2022-08-16T13:50:17.419Z,27.80
2022-08-16T13:52:04.878Z,27.70
2022-08-16T13:53:38.730Z,27.70
2022-08-16T13:55:15.779Z,27.60
2022-08-16T13:56:50.324Z,27.70
2022-08-16T13:58:37.144Z,27.70
2022-08-16T14:00:19.323Z,27.70
2022-08-16T14:01:59.508Z,27.60
2022-08-16T14:03:34.341Z,27.50
2022-08-16T14:05:08.271Z,27.40
2022-08-16T14:06:43.311Z,27.50
2022-08-16T14:08:17.916Z,27.50
2022-08-16T14:09:50.373Z,27.50
2022-08-16T14:11:27.159Z,27.50
2022-08-16T14:13:02.736Z,27.60
2022-08-16T14:14:35.312Z,27.50
2022-08-16T14:16:12.715Z,27.50
2022-08-16T14:18:15.783Z,27.40
2022-08-16T14:19:49.367Z,27.30
2022-08-16T14:21:23.753Z,27.30
2022-08-16T14:22:56.234Z,27.30
2022-08-16T14:24:30.126Z,27.20
2022-08-16T14:26:03.872Z,27.20
2022-08-16T14:27:39.095Z,27.20
2022-08-16T14:29:28.582Z,27.10
2022-08-16T14:31:04.446Z,27.10
2022-08-16T14:32:37.491Z,27.10
2022-08-16T14:34:13.752Z,27.10
2022-08-16T14:35:50.644Z,27.10
2022-08-16T14:37:23.344Z,27.10
2022-08-16T14:38:55.536Z,27.10
2022-08-16T14:40:29.227Z,27.10
2022-08-16T14:42:10.895Z,27.00
2022-08-16T14:43:45.876Z,27.00
2022-08-16T14:45:24.353Z,27.10
2022-08-16T14:46:56.453Z,27.10
2022-08-16T14:48:28.890Z,27.10
2022-08-16T14:50:01.131Z,27.10
2022-08-16T14:51:33.247Z,27.10
2022-08-16T14:53:08.943Z,27.20
2022-08-16T14:54:44.086Z,27.30
2022-08-16T14:56:38.419Z,27.40
2022-08-16T14:58:18.915Z,27.40
2022-08-16T14:59:52.063Z,27.40
2022-08-16T15:01:24.927Z,27.40
2022-08-16T15:03:17.156Z,27.40
2022-08-16T15:04:49.942Z,27.40
2022-08-16T15:06:22.072Z,27.40
2022-08-16T15:07:57.228Z,27.50
2022-08-16T15:09:29.728Z,27.30
2022-08-16T15:11:01.764Z,27.30
2022-08-16T15:12:36.100Z,27.30
2022-08-16T15:14:09.101Z,27.30
2022-08-16T15:15:41.529Z,27.30
2022-08-16T15:17:14.689Z,27.30
2022-08-16T15:18:47.785Z,27.20
2022-08-16T15:20:21.810Z,27.20
2022-08-16T15:21:54.214Z,27.30
2022-08-16T15:23:26.947Z,27.30
2022-08-16T15:25:01.020Z,27.40
2022-08-16T15:26:44.627Z,27.40
2022-08-16T15:28:31.293Z,27.50
2022-08-16T15:30:47.817Z,27.50
2022-08-16T15:32:00.723Z,27.60
2022-08-16T15:33:35.758Z,27.60
2022-08-16T15:35:12.867Z,27.70
2022-08-16T15:36:44.920Z,27.70
2022-08-16T15:38:31.712Z,27.70
2022-08-16T15:40:16.330Z,27.70
2022-08-16T15:42:02.748Z,27.80
2022-08-16T15:43:40.077Z,27.80
2022-08-16T15:45:12.883Z,27.80
2022-08-16T15:46:55.228Z,27.80
2022-08-16T15:48:30.968Z,27.90
2022-08-16T15:50:05.800Z,27.90
2022-08-16T15:51:38.168Z,27.80
2022-08-16T15:53:19.410Z,27.90
2022-08-16T15:54:53.637Z,27.80
2022-08-16T15:56:28.381Z,27.80
2022-08-16T15:58:00.828Z,27.80
2022-08-16T15:59:56.326Z,27.70
2022-08-16T16:01:36.478Z,27.70
2022-08-16T16:03:11.274Z,27.70
2022-08-16T16:04:43.439Z,27.70
2022-08-16T16:06:28.028Z,27.70
2022-08-16T16:08:11.243Z,27.70
2022-08-16T16:09:45.579Z,27.70
2022-08-16T16:11:17.664Z,27.60
2022-08-16T16:12:55.687Z,27.50
2022-08-16T16:14:28.247Z,27.40
2022-08-16T16:16:06.824Z,27.30
2022-08-16T16:17:52.232Z,27.10
2022-08-16T16:19:24.661Z,26.90
2022-08-16T16:21:06.180Z,26.80
2022-08-16T16:22:38.231Z,26.70
2022-08-16T16:24:21.297Z,26.60
2022-08-16T16:25:57.426Z,26.50
2022-08-16T16:27:30.298Z,26.40
2022-08-16T16:29:08.604Z,26.30
2022-08-16T16:30:46.954Z,26.30
2022-08-16T16:32:19.963Z,26.20
2022-08-16T16:34:07.550Z,26.10
2022-08-16T16:35:42.212Z,25.90
2022-08-16T16:37:19.438Z,25.90
2022-08-16T16:38:51.717Z,25.80
2022-08-16T16:40:32.255Z,25.80
2022-08-16T16:42:05.620Z,25.80
2022-08-16T16:43:42.252Z,25.80
2022-08-16T16:45:15.229Z,25.70
2022-08-16T16:46:57.785Z,25.80
2022-08-16T16:48:35.059Z,25.80
2022-08-16T16:50:09.228Z,25.70
2022-08-16T16:51:44.619Z,25.80
2022-08-16T16:53:18.216Z,25.80
2022-08-16T16:54:56.149Z,25.80
2022-08-16T16:56:36.895Z,25.90
2022-08-16T16:58:28.813Z,25.80
2022-08-16T17:00:29.710Z,25.90
2022-08-16T17:02:41.861Z,25.90
2022-08-16T17:03:53.759Z,25.90
2022-08-16T17:05:29.202Z,25.90
2022-08-16T17:07:10.892Z,25.90
2022-08-16T17:08:46.425Z,25.90
2022-08-16T17:10:46.062Z,26.00
2022-08-16T17:12:22.670Z,25.90
2022-08-16T17:14:06.661Z,25.90
2022-08-16T17:15:52.443Z,25.90
2022-08-16T17:17:25.567Z,25.90
2022-08-16T17:19:17.451Z,25.80
2022-08-16T17:20:51.480Z,25.80
2022-08-16T17:22:32.908Z,25.80
2022-08-16T17:24:17.498Z,25.80
2022-08-16T17:25:52.360Z,25.80
2022-08-16T17:27:51.072Z,25.70
2022-08-16T17:29:21.825Z,25.70
2022-08-16T17:31:04.609Z,25.60
2022-08-16T17:32:47.530Z,25.60
2022-08-16T17:34:29.254Z,25.50
2022-08-16T17:36:03.749Z,25.50
2022-08-16T17:37:48.919Z,25.50
2022-08-16T17:39:24.117Z,25.40
2022-08-16T17:40:59.134Z,25.40
2022-08-16T17:42:32.111Z,25.30
2022-08-16T17:44:05.427Z,25.30
2022-08-16T17:45:39.287Z,25.30
2022-08-16T17:47:11.807Z,25.20
2022-08-16T17:48:44.060Z,25.20
2022-08-16T17:50:16.817Z,25.20
2022-08-16T17:51:50.101Z,25.10
2022-08-16T17:53:22.947Z,25.10
2022-08-16T17:54:55.188Z,25.10
2022-08-16T17:56:27.433Z,25.10
2022-08-16T17:58:00.785Z,25.00
2022-08-16T17:59:42.427Z,25.00
2022-08-16T18:01:15.676Z,24.90
2022-08-16T18:02:50.324Z,24.80
2022-08-16T18:04:49.142Z,24.80
2022-08-16T18:06:18.451Z,24.70
2022-08-16T18:07:51.386Z,24.60
2022-08-16T18:09:24.505Z,24.60
2022-08-16T18:10:56.736Z,24.60
2022-08-16T18:12:50.957Z,24.50
2022-08-16T18:14:51.210Z,24.50
2022-08-16T18:16:16.722Z,24.40
2022-08-16T18:17:53.163Z,24.40
2022-08-16T18:19:25.444Z,24.30
2022-08-16T18:21:16.011Z,24.30
2022-08-16T18:22:48.231Z,24.20
2022-08-16T18:24:20.855Z,24.20
2022-08-16T18:25:56.523Z,24.20
2022-08-16T18:27:32.747Z,24.10
2022-08-16T18:29:06.169Z,24.10
2022-08-16T18:30:39.227Z,24.00
2022-08-16T18:32:11.900Z,24.00
2022-08-16T18:33:44.245Z,23.90
2022-08-16T18:35:17.843Z,23.80
2022-08-16T18:36:50.937Z,23.80
2022-08-16T18:38:23.447Z,23.80
2022-08-16T18:39:56.645Z,23.70
2022-08-16T18:41:30.536Z,23.70
2022-08-16T18:44:22.401Z,23.70
2022-08-16T18:45:15.735Z,23.60
2022-08-16T18:46:50.922Z,23.60
2022-08-16T18:48:28.018Z,23.60
2022-08-16T18:50:00.484Z,23.50
2022-08-16T18:51:33.482Z,23.60
2022-08-16T18:53:09.000Z,23.50
2022-08-16T18:55:01.769Z,23.50
2022-08-16T18:56:57.076Z,23.60
2022-08-16T18:58:27.020Z,23.60
2022-08-16T18:59:59.591Z,23.60
2022-08-16T19:01:31.854Z,23.50
2022-08-16T19:03:19.033Z,23.50
2022-08-16T19:04:58.298Z,23.50
2022-08-16T19:06:30.871Z,23.50
2022-08-16T19:08:04.205Z,23.50
2022-08-16T19:09:36.524Z,23.50
2022-08-16T19:11:10.271Z,23.50
2022-08-16T19:12:43.459Z,23.40
2022-08-16T19:14:15.671Z,23.40
2022-08-16T19:15:49.185Z,23.40
2022-08-16T19:17:21.396Z,23.30
2022-08-16T19:18:53.655Z,23.30
2022-08-16T19:20:28.427Z,23.30
2022-08-16T19:22:00.459Z,23.20
2022-08-16T19:23:35.831Z,23.10
2022-08-16T19:25:09.991Z,23.00
2022-08-16T19:26:43.286Z,23.00
2022-08-16T19:28:49.169Z,22.90
2022-08-16T19:30:22.779Z,22.80
2022-08-16T19:31:54.868Z,22.70
2022-08-16T19:33:27.005Z,22.70
2022-08-16T19:35:00.262Z,22.70
2022-08-16T19:36:37.102Z,22.60
2022-08-16T19:38:09.779Z,22.60
2022-08-16T19:39:41.979Z,22.50
2022-08-16T19:41:14.163Z,22.60
2022-08-16T19:42:48.320Z,22.50
2022-08-16T19:44:20.480Z,22.50
2022-08-16T19:45:53.096Z,22.50
2022-08-16T19:47:25.820Z,22.50
2022-08-16T19:48:58.204Z,22.50
2022-08-16T19:50:35.980Z,22.50
2022-08-16T19:52:18.605Z,22.50
2022-08-16T19:53:50.632Z,22.50
2022-08-16T19:55:22.903Z,22.50
2022-08-16T19:56:55.087Z,22.50
2022-08-16T19:58:27.179Z,22.50
2022-08-16T19:59:59.587Z,22.50
2022-08-16T20:01:31.840Z,22.50
2022-08-16T20:03:10.097Z,22.50
2022-08-16T20:04:42.211Z,22.50
2022-08-16T20:06:38.100Z,22.50
2022-08-16T20:08:07.475Z,22.50
2022-08-16T20:09:40.246Z,22.50
2022-08-16T20:11:12.440Z,22.50
2022-08-16T20:12:58.271Z,22.50
2022-08-16T20:14:34.759Z,22.50
2022-08-16T20:16:07.019Z,22.50
2022-08-16T20:17:39.041Z,22.60
2022-08-16T20:19:11.381Z,22.60
2022-08-16T20:20:43.761Z,22.70
2022-08-16T20:22:49.858Z,22.70
2022-08-16T20:24:32.907Z,22.60
2022-08-16T20:26:06.566Z,22.70
2022-08-16T20:27:40.512Z,22.70
2022-08-16T20:29:12.865Z,22.70
2022-08-16T20:30:44.939Z,22.70
2022-08-16T20:32:25.316Z,22.70
2022-08-16T20:33:57.956Z,22.60
2022-08-16T20:35:30.239Z,22.70
2022-08-16T20:37:02.328Z,22.70
2022-08-16T20:38:35.375Z,22.70
2022-08-16T20:40:34.850Z,22.70
2022-08-16T20:42:02.964Z,22.70
2022-08-16T20:43:35.249Z,22.60
2022-08-16T20:45:09.031Z,22.60
2022-08-16T20:46:41.232Z,22.60
2022-08-16T20:48:13.424Z,22.60
2022-08-16T20:49:46.055Z,22.60
2022-08-16T20:51:18.078Z,22.60
2022-08-16T20:52:50.789Z,22.60
2022-08-16T20:54:23.088Z,22.60
2022-08-16T20:55:56.211Z,22.50
2022-08-16T20:57:28.252Z,22.60
2022-08-16T20:59:00.471Z,22.60
2022-08-16T21:00:33.611Z,22.60
2022-08-16T21:02:17.584Z,22.60
2022-08-16T21:03:49.648Z,22.60
2022-08-16T21:05:24.777Z,22.70
2022-08-16T21:07:00.092Z,22.70